Time;durP1;ratioP1;P1;durP2;ratioP2;P2;SDS_P1;SDS_P2;PMS_P1;PMS_P2;Temp;Humidity;BMP_temperature;BMP_pressure;BME280_temperature;BME280_humidity;BME280_pressure;Samples;Min_cycle;Max_cycle;Signal;HPM_P1;HPM_P2
2023/09/13 00:02:05;;;;;;;6.97;5.30;;;;;;;;;;5100473;28;20295;-62
2023/09/13 00:04:31;;;;;;;5.05;4.55;;;;;;;;;;5103887;28;20232;-63
2023/09/13 00:06:58;;;;;;;6.72;5.13;;;;;;;;;;5103343;28;20200;-62
2023/09/13 00:09:24;;;;;;;5.50;4.85;;;;;;;;;;5102674;28;20205;-61
2023/09/13 00:11:52;;;;;;;7.30;4.38;;;;;;;;;;5103554;28;20731;-63
2023/09/13 00:14:19;;;;;;;7.35;5.65;;;;;;;;;;5101162;28;20261;-62
2023/09/13 00:16:45;;;;;;;8.07;4.93;;;;;;;;;;5103027;28;20209;-64
2023/09/13 00:19:12;;;;;;;5.28;4.68;;;;;;;;;;5103339;28;20204;-62
2023/09/13 00:21:42;;;;;;;9.32;5.05;;;;;;;;;;5103397;28;20199;-62
2023/09/13 00:24:10;;;;;;;8.32;4.60;;;;;;;15.94;nan;95431.81;5102414;28;20572;-63
2023/09/13 00:26:36;;;;;;;5.85;5.28;;;;;;;;;;5100613;28;20654;-62
2023/09/13 00:29:04;;;;;;;7.78;5.00;;;;;;;;;;5101559;28;20197;-61
2023/09/13 00:31:30;;;;;;;5.13;4.35;;;;;;;;;;5101048;28;20212;-62
2023/09/13 00:33:57;;;;;;;7.75;4.72;;;;;;;;;;5100396;28;20233;-62
2023/09/13 00:36:23;;;;;;;5.15;4.65;;;;;;;;;;5101573;28;20250;-61
2023/09/13 00:38:50;;;;;;;7.28;4.82;;;;;;;;;;5101394;28;20301;-62
2023/09/13 00:41:16;;;;;;;8.02;4.80;;;;;;;;;;5101801;28;20212;-61
2023/09/13 00:43:43;;;;;;;6.28;5.32;;;;;;;;;;5101391;28;20232;-60
2023/09/13 00:46:11;;;;;;;6.35;4.40;;;;;;;;;;5103508;28;20289;-61
2023/09/13 00:48:37;;;;;;;6.95;4.18;;;;;;;;;;5101824;28;20281;-61
2023/09/13 00:51:04;;;;;;;6.72;4.53;;;;;;;;;;5102996;28;20197;-61
2023/09/13 00:53:32;;;;;;;5.95;4.30;;;;;;;;;;5102779;28;20228;-61
2023/09/13 00:55:59;;;;;;;6.40;5.20;;;;;;;;;;5103758;28;20227;-61
2023/09/13 00:58:26;;;;;;;8.45;4.75;;;;;;;;;;5103148;28;20208;-60
2023/09/13 01:00:53;;;;;;;9.00;3.78;;;;;;;;;;5103013;28;20211;-61
2023/09/13 01:03:22;;;;;;;10.85;4.28;;;;;;;;;;5102257;28;20250;-61
2023/09/13 01:05:52;;;;;;;6.00;4.65;;;;;;;;;;5107452;28;20220;-62
2023/09/13 01:08:19;;;;;;;13.60;5.45;;;;;;;;;;5106599;28;20708;-60
2023/09/13 01:10:45;;;;;;;4.68;4.30;;;;;;;;;;5106682;28;20705;-61
2023/09/13 01:13:11;;;;;;;10.20;5.18;;;;;;;;;;5107117;28;20204;-60
2023/09/13 01:15:39;;;;;;;5.15;4.65;;;;;;;;;;5107997;28;20193;-61
2023/09/13 01:18:09;;;;;;;6.53;4.28;;;;;;;;;;5105967;28;20198;-61
2023/09/13 01:20:50;;;;;;;8.85;4.70;;;;;;;;;;5107244;28;20663;-60
2023/09/13 01:23:34;;;;;;;5.43;3.83;;;;;;;;;;5106285;28;20239;-61
2023/09/13 01:26:08;;;;;;;7.10;4.45;;;;;;;;;;5107126;28;20289;-61
2023/09/13 01:28:39;;;;;;;5.97;4.00;;;;;;;;;;5104332;28;20284;-61
2023/09/13 01:31:07;;;;;;;4.78;4.13;;;;;;;;;;5100705;28;20197;-60
2023/09/13 01:33:33;;;;;;;5.65;3.83;;;;;;;;;;5101140;28;20233;-61
2023/09/13 01:36:00;;;;;;;10.23;5.00;;;;;;;;;;5096579;28;20266;-61
2023/09/13 01:38:27;;;;;;;8.88;4.85;;;;;;;;;;5096450;28;20202;-61
2023/09/13 01:40:57;;;;;;;6.05;3.88;;;;;;;;;;5098121;28;20205;-61
2023/09/13 01:43:24;;;;;;;5.40;4.30;;;;;;;;;;5099577;28;20242;-60
2023/09/13 01:45:53;;;;;;;4.65;4.22;;;;;;;;;;5094880;28;20252;-61
2023/09/13 01:48:20;;;;;;;7.60;4.53;;;;;;;;;;5096096;28;20235;-61
2023/09/13 01:50:48;;;;;;;4.80;4.35;;;;;;;;;;5099899;28;20255;-62
2023/09/13 01:53:15;;;;;;;7.30;4.28;;;;;;;;;;5102667;28;20308;-61
2023/09/13 01:55:41;;;;;;;4.57;4.28;;;;;;;;;;5101666;28;20197;-64
2023/09/13 01:58:07;;;;;;;6.88;4.53;;;;;;;;;;5095842;28;20261;-63
2023/09/13 02:00:34;;;;;;;4.70;4.18;;;;;;;;;;5097763;28;20198;-61
2023/09/13 02:03:02;;;;;;;6.63;4.63;;;;;;;;;;5096844;28;20210;-63
2023/09/13 02:05:28;;;;;;;5.35;3.97;;;;;;;;;;5097386;28;20248;-62
2023/09/13 02:07:54;;;;;;;7.03;4.38;;;;;;;;;;5097425;28;20197;-61
2023/09/13 02:10:21;;;;;;;5.57;4.35;;;;;;;;;;5093692;28;20535;-63
2023/09/13 02:12:47;;;;;;;5.22;4.85;;;;;;;;;;5096895;28;20678;-61
2023/09/13 02:15:14;;;;;;;5.18;4.70;;;;;;;;;;5092501;28;20235;-62
2023/09/13 02:17:41;;;;;;;4.88;4.00;;;;;;;;;;5098058;28;20198;-61
2023/09/13 02:20:12;;;;;;;9.18;4.15;;;;;;;;;;5092177;28;20197;-61
2023/09/13 02:22:38;;;;;;;4.10;3.58;;;;;;;;;;5100264;28;20208;-62
2023/09/13 02:25:05;;;;;;;7.43;3.90;;;;;;;;;;5104803;28;20266;-59
2023/09/13 02:27:33;;;;;;;9.90;4.90;;;;;;;;;;5098050;28;20231;-61
2023/09/13 02:29:59;;;;;;;4.30;3.85;;;;;;;;;;5094023;28;20202;-63
2023/09/13 02:32:25;;;;;;;5.10;4.38;;;;;;;;;;5106351;28;20193;-61
2023/09/13 02:34:52;;;;;;;5.80;3.60;;;;;;;;;;5086373;27;20627;-61
2023/09/13 02:37:20;;;;;;;5.90;3.58;;;;;;;;;;5105828;28;20201;-61
2023/09/13 02:39:47;;;;;;;7.95;4.20;;;;;;;;;;5093587;28;20197;-61
2023/09/13 02:42:13;;;;;;;5.50;3.85;;;;;;;;;;5093188;28;20225;-60
2023/09/13 02:44:40;;;;;;;12.60;4.13;;;;;;;;;;5096235;28;20255;-60
2023/09/13 02:47:06;;;;;;;9.27;4.65;;;;;;;;;;5100402;28;20200;-60
2023/09/13 02:49:33;;;;;;;6.70;4.05;;;;;;;;;;5104247;28;20200;-60
2023/09/13 02:51:59;;;;;;;5.80;4.43;;;;;;;;;;5102447;28;20687;-61
2023/09/13 02:54:27;;;;;;;11.30;4.32;;;;;;;;;;5100003;28;20259;-60
2023/09/13 02:56:54;;;;;;;7.55;4.05;;;;;;;;;;5101664;28;20193;-59
2023/09/13 02:59:20;;;;;;;10.52;4.20;;;;;;;;;;5104257;28;20197;-60
2023/09/13 03:01:46;;;;;;;9.85;5.10;;;;;;;;;;5094578;28;20201;-64
2023/09/13 03:04:13;;;;;;;4.07;3.65;;;;;;;;;;5098081;28;20197;-64
2023/09/13 03:06:40;;;;;;;5.13;4.05;;;;;;;;;;5096803;28;20471;-62
2023/09/13 03:09:06;;;;;;;4.47;3.70;;;;;;;;;;5096491;28;20371;-63
2023/09/13 03:11:35;;;;;;;3.78;3.15;;;;;;;;;;5097712;28;20892;-64
2023/09/13 03:14:02;;;;;;;6.20;3.70;;;;;;;;;;5093570;28;20250;-63
2023/09/13 03:16:28;;;;;;;4.43;4.03;;;;;;;;;;5095189;28;20197;-63
2023/09/13 03:18:55;;;;;;;12.18;5.05;;;;;;;;;;5096591;28;20684;-63
2023/09/13 03:21:21;;;;;;;4.55;4.18;;;;;;;;;;5096039;28;20197;-62
2023/09/13 03:23:49;;;;;;;7.20;4.43;;;;;;;;;;5097053;28;20235;-62
2023/09/13 03:26:16;;;;;;;3.95;3.65;;;;;;;;;;5096749;28;20218;-62
2023/09/13 03:28:45;;;;;;;5.28;4.82;;;;;;;;;;5095111;28;20656;-61
2023/09/13 03:31:12;;;;;;;14.65;4.60;;;;;;;;;;5095008;28;20241;-62
2023/09/13 03:33:39;;;;;;;8.23;4.55;;;;;;;;;;5098451;28;20702;-65
2023/09/13 03:36:06;;;;;;;5.63;4.00;;;;;;;;;;5098482;28;20250;-63
2023/09/13 03:38:33;;;;;;;7.55;4.95;;;;;;;;;;5098128;28;20233;-63
2023/09/13 03:40:59;;;;;;;6.50;4.63;;;;;;;;;;5097725;28;20212;-63
2023/09/13 03:43:25;;;;;;;5.53;5.03;;;;;;;;;;5096710;28;20273;-64
2023/09/13 03:45:54;;;;;;;8.48;5.40;;;;;;;;;;5097179;28;20249;-63
2023/09/13 03:48:20;;;;;;;6.05;5.32;;;;;;;;;;5100340;28;20683;-62
2023/09/13 03:50:46;;;;;;;5.97;5.38;;;;;;;;;;5095249;28;20579;-62
2023/09/13 03:53:13;;;;;;;12.60;5.43;;;;;;;;;;5094535;28;20244;-61
2023/09/13 03:55:39;;;;;;;6.22;5.00;;;;;;;;;;5099255;28;20746;-62
2023/09/13 03:58:06;;;;;;;7.50;5.65;;;;;;;;;;5098852;28;20635;-62
2023/09/13 04:00:35;;;;;;;7.28;5.00;;;;;;;;;;5103037;28;20308;-62
2023/09/13 04:03:03;;;;;;;11.70;4.82;;;;;;;;;;5104668;28;20221;-61
2023/09/13 04:05:30;;;;;;;9.18;5.32;;;;;;;;;;5094066;28;20257;-63
2023/09/13 04:07:56;;;;;;;9.68;5.95;;;;;;;;;;5096645;28;20209;-62
2023/09/13 04:10:23;;;;;;;7.88;6.22;;;;;;;;;;5093904;28;20205;-61
2023/09/13 04:12:49;;;;;;;8.90;5.15;;;;;;;;;;5100612;28;20312;-62
2023/09/13 04:15:16;;;;;;;11.65;5.30;;;;;;;;;;5099517;28;20679;-62
2023/09/13 04:17:42;;;;;;;14.18;6.13;;;;;;;;;;5102308;28;20335;-62
2023/09/13 04:20:10;;;;;;;8.38;5.40;;;;;;;;;;5101286;28;20197;-62
2023/09/13 04:22:37;;;;;;;12.82;5.30;;;;;;;;;;5104605;28;20305;-63
2023/09/13 04:25:04;;;;;;;11.30;6.18;;;;;;;;;;5103984;28;20229;-60
2023/09/13 04:27:31;;;;;;;8.60;5.75;;;;;;;;;;5099279;28;20217;-63
2023/09/13 04:29:57;;;;;;;10.55;5.90;;;;;;;;;;5099748;28;20573;-62
2023/09/13 04:32:24;;;;;;;5.65;4.88;;;;;;;;;;5099837;28;20257;-61
2023/09/13 04:34:50;;;;;;;26.10;15.00;;;;;;;;;;5097431;28;20225;-62
2023/09/13 04:37:18;;;;;;;36.00;17.13;;;;;;;;;;5102058;28;20225;-62
2023/09/13 04:39:45;;;;;;;23.38;9.93;;;;;;;;;;5103190;28;20205;-61
2023/09/13 04:42:11;;;;;;;13.73;6.70;;;;;;;;;;5097687;28;20232;-63
2023/09/13 04:44:38;;;;;;;29.55;7.50;;;;;;;;;;5093930;28;20710;-63
2023/09/13 04:47:04;;;;;;;14.20;6.55;;;;;;;;;;5095277;28;20707;-63
2023/09/13 04:49:31;;;;;;;6.78;6.03;;;;;;;;;;5101046;28;20294;-63
2023/09/13 04:51:59;;;;;;;10.25;6.10;;;;;;;;;;5100444;28;20242;-62
2023/09/13 04:54:27;;;;;;;9.50;6.57;;;;;;;;;;5094743;28;20228;-63
2023/09/13 04:56:54;;;;;;;7.63;6.25;;;;;;;;;;5101626;28;20189;-62
2023/09/13 04:59:24;;;;;;;38.53;21.80;;;;;;;;;;5093672;28;20201;-62
2023/09/13 05:01:50;;;;;;;41.25;23.95;;;;;;;;;;5096042;28;20674;-61
2023/09/13 05:04:17;;;;;;;43.88;21.58;;;;;;;;;;5098918;28;20229;-63
2023/09/13 05:06:43;;;;;;;16.60;10.23;;;;;;;;;;5093480;28;20771;-63
2023/09/13 05:09:09;;;;;;;25.95;8.05;;;;;;;;;;5096748;28;20232;-63
2023/09/13 05:11:37;;;;;;;19.83;7.55;;;;;;;;;;5092943;28;20225;-62
2023/09/13 05:14:11;;;;;;;12.20;7.93;;;;;;;;;;5093998;28;20255;-63
2023/09/13 05:16:37;;;;;;;8.57;6.97;;;;;;;;;;5094577;28;20197;-64
2023/09/13 05:19:04;;;;;;;11.63;7.10;;;;;;;;;;5098424;28;20228;-65
2023/09/13 05:21:30;;;;;;;14.50;7.30;;;;;;;;;;5097736;28;20197;-63
2023/09/13 05:23:57;;;;;;;17.95;8.27;;;;;;;;;;5095302;28;20229;-61
2023/09/13 05:26:23;;;;;;;15.35;8.45;;;;;;;;;;5099711;28;20312;-62
2023/09/13 05:28:51;;;;;;;24.75;8.23;;;;;;;;;;5097222;28;20189;-63
2023/09/13 05:31:17;;;;;;;17.42;7.35;;;;;;;;;;5097450;28;20629;-62
2023/09/13 05:33:44;;;;;;;13.80;8.38;;;;;;;;;;5094749;28;20237;-62
2023/09/13 05:36:12;;;;;;;19.08;9.15;;;;;;;;;;5097431;28;20193;-60
2023/09/13 05:38:38;;;;;;;22.08;8.35;;;;;;;;;;5097032;28;20689;-62
2023/09/13 05:41:06;;;;;;;19.42;8.70;;;;;;;;;;5102815;28;20671;-62
2023/09/13 05:43:33;;;;;;;12.75;7.95;;;;;;;;;;5100913;28;20212;-62
2023/09/13 05:46:01;;;;;;;15.10;8.52;;;;;;;;;;5091339;28;20232;-64
2023/09/13 05:48:29;;;;;;;20.38;7.78;;;;;;;;;;5098098;28;20292;-65
2023/09/13 05:50:56;;;;;;;17.67;8.05;;;;;;;;;;5101323;28;20197;-63
2023/09/13 05:53:22;;;;;;;14.90;8.80;;;;;;;;;;5107142;28;20224;-62
2023/09/13 05:55:50;;;;;;;18.17;8.15;;;;;;;;;;5107429;28;20234;-64
2023/09/13 05:58:17;;;;;;;17.80;8.07;;;;;;;;;;5103920;28;20261;-64
2023/09/13 06:00:46;;;;;;;13.15;8.43;;;;;;;;;;5106260;28;20204;-61
2023/09/13 06:03:14;;;;;;;24.52;8.73;;;;;;;;;;5104858;28;20227;-62
2023/09/13 06:05:41;;;;;;;15.07;7.80;;;;;;;;;;5097047;28;20224;-62
2023/09/13 06:08:07;;;;;;;14.10;8.13;;;;;;;;;;5104124;28;20224;-64
2023/09/13 06:10:34;;;;;;;23.27;8.25;;;;;;;;;;5097851;28;20229;-63
2023/09/13 06:13:00;;;;;;;17.58;8.05;;;;;;;;;;5097164;28;20250;-64
2023/09/13 06:15:26;;;;;;;19.10;8.43;;;;;;;;;;5096761;28;20210;-63
2023/09/13 06:17:54;;;;;;;22.52;8.00;;;;;;;;;;5102664;28;20725;-65
2023/09/13 06:20:22;;;;;;;18.50;9.80;;;;;;;;;;5095313;28;20229;-63
2023/09/13 06:22:49;;;;;;;13.40;8.60;;;;;;;;;;5102316;28;20240;-63
2023/09/13 06:25:17;;;;;;;23.10;9.05;;;;;;;;;;5105526;28;20212;-63
2023/09/13 06:27:43;;;;;;;17.48;8.80;;;;;;;;;;5098659;28;20225;-62
2023/09/13 06:30:10;;;;;;;26.45;8.60;;;;;;;;;;5099536;28;20201;-64
2023/09/13 06:32:37;;;;;;;20.38;9.02;;;;;;;;;;5106586;28;20723;-63
2023/09/13 06:35:03;;;;;;;19.20;9.55;;;;;;;;;;5105297;28;20236;-63
2023/09/13 06:37:31;;;;;;;32.55;9.85;;;;;;;;;;5097989;28;20229;-65
2023/09/13 06:39:57;;;;;;;23.00;9.07;;;;;;;;;;5103145;28;20210;-62
2023/09/13 06:42:24;;;;;;;12.02;8.48;;;;;;;;;;5101511;28;20671;-63
2023/09/13 06:44:50;;;;;;;21.75;9.13;;;;;;;;;;5098926;28;20227;-63
2023/09/13 06:47:17;;;;;;;13.63;8.73;;;;;;;;;;5100799;28;20257;-63
2023/09/13 06:49:43;;;;;;;18.58;7.90;;;;;;;;;;5085615;28;20301;-65
2023/09/13 06:52:09;;;;;;;27.73;16.25;;;;;;;;;;5083511;27;20244;-64
2023/09/13 06:54:37;;;;;;;21.75;11.65;;;;;;;;;;5080872;27;20254;-62
2023/09/13 06:57:05;;;;;;;21.92;13.20;;;;;;;;;;5094915;28;20226;-64
2023/09/13 06:59:32;;;;;;;22.83;10.57;;;;;;;;;;5092895;28;20202;-63
2023/09/13 07:01:59;;;;;;;22.42;11.10;;;;;;;;;;5089739;28;20591;-65
2023/09/13 07:04:25;;;;;;;21.38;9.93;;;;;;;;;;5094421;28;20221;-64
2023/09/13 07:06:52;;;;;;;15.10;9.00;;;;;;;;;;5099004;28;20257;-63
2023/09/13 07:09:18;;;;;;;13.20;7.97;;;;;;;;;;5095820;28;20287;-62
2023/09/13 07:11:46;;;;;;;10.15;8.07;;;;;;;;;;5092666;28;20206;-63
2023/09/13 07:14:12;;;;;;;14.60;7.35;;;;;;;;;;5088826;28;20193;-63
2023/09/13 07:16:39;;;;;;;16.42;8.05;;;;;;;;;;5092569;28;20290;-63
2023/09/13 07:19:05;;;;;;;9.48;7.25;;;;;;;;;;5090393;28;20254;-65
2023/09/13 07:21:32;;;;;;;15.77;8.45;;;;;;;;;;5088956;28;20555;-63
2023/09/13 07:23:58;;;;;;;14.15;7.80;;;;;;;;;;5090900;28;20929;-64
2023/09/13 07:26:25;;;;;;;9.68;7.80;;;;;;;;;;5094990;28;20240;-66
2023/09/13 07:28:53;;;;;;;13.35;7.07;;;;;;;;;;5089841;28;20201;-64
2023/09/13 07:31:19;;;;;;;21.85;7.18;;;;;;;;;;5086407;28;20206;-63
2023/09/13 07:33:45;;;;;;;13.90;8.27;;;;;;;;;;5091922;28;20248;-63
2023/09/13 07:36:11;;;;;;;14.65;7.32;;;;;;;;;;5100029;28;20236;-64
2023/09/13 07:38:38;;;;;;;11.77;7.25;;;;;;;;;;5103247;28;20224;-63
2023/09/13 07:41:04;;;;;;;29.55;21.85;;;;;;;;;;5095981;28;20201;-64
2023/09/13 07:43:31;;;;;;;13.48;8.27;;;;;;;;;;5090524;28;20263;-63
2023/09/13 07:45:59;;;;;;;11.43;9.60;;;;;;;;;;5098523;28;20224;-63
2023/09/13 07:48:26;;;;;;;10.52;7.70;;;;;;;;;;5092656;28;20582;-63
2023/09/13 07:50:53;;;;;;;9.10;6.05;;;;;;;;;;5097888;28;20212;-63
2023/09/13 07:53:19;;;;;;;12.68;6.07;;;;;;;;;;5095810;28;20221;-65
2023/09/13 07:55:46;;;;;;;9.77;7.43;;;;;;;;;;5096145;28;20225;-64
2023/09/13 07:58:12;;;;;;;9.30;7.28;;;;;;;;;;5091968;28;20220;-65
2023/09/13 08:00:39;;;;;;;11.35;6.00;;;;;;;;;;5095017;28;20229;-64
2023/09/13 08:03:07;;;;;;;18.52;7.75;;;;;;;;;;5092453;28;20229;-64
2023/09/13 08:05:33;;;;;;;9.65;7.07;;;;;;;;;;5094123;28;20213;-64
2023/09/13 08:08:00;;;;;;;22.33;9.60;;;;;;;;;;5095360;28;20240;-64
2023/09/13 08:10:26;;;;;;;8.52;6.25;;;;;;;;;;5090731;28;20676;-64
2023/09/13 08:12:53;;;;;;;11.80;7.15;;;;;;;;;;5093721;28;20236;-63
2023/09/13 08:15:19;;;;;;;10.63;6.70;;;;;;;;;;5092006;28;20266;-63
2023/09/13 08:17:46;;;;;;;9.82;5.55;;;;;;;;;;5092247;28;20311;-64
2023/09/13 08:20:13;;;;;;;9.98;5.05;;;;;;;;;;5093299;28;20292;-63
2023/09/13 08:22:40;;;;;;;8.05;5.97;;;;;;;;;;5092562;28;20224;-64
2023/09/13 08:25:07;;;;;;;8.13;5.50;;;;;;;;;;5091120;28;20235;-63
2023/09/13 08:27:34;;;;;;;10.73;6.90;;;;;;;;;;5090796;28;20866;-63
2023/09/13 08:30:00;;;;;;;13.50;5.68;;;;;;;;;;5096547;28;20213;-63
2023/09/13 08:32:27;;;;;;;10.88;5.05;;;;;;;;;;5094031;28;20253;-63
2023/09/13 08:34:55;;;;;;;15.82;6.47;;;;;;;;;;5095503;28;20241;-66
2023/09/13 08:37:23;;;;;;;7.43;6.28;;;;;;;;;;5096293;28;20197;-65
2023/09/13 08:39:49;;;;;;;7.00;5.60;;;;;;;;;;5088588;28;20286;-65
2023/09/13 08:42:16;;;;;;;7.80;5.07;;;;;;;;;;5096936;28;20707;-64
2023/09/13 08:44:43;;;;;;;11.85;5.75;;;;;;;;;;5103101;28;20197;-64
2023/09/13 08:47:10;;;;;;;9.63;4.90;;;;;;;;;;5100819;28;20661;-62
2023/09/13 08:49:37;;;;;;;8.32;5.30;;;;;;;;;;5092126;28;20229;-62
2023/09/13 08:52:04;;;;;;;16.00;9.10;;;;;;;;;;5093281;28;20213;-64
2023/09/13 08:54:33;;;;;;;10.95;4.60;;;;;;;;;;5092432;28;20237;-63
2023/09/13 08:57:02;;;;;;;10.52;5.22;;;;;;;;;;5093239;28;20253;-62
2023/09/13 08:59:28;;;;;;;6.05;5.28;;;;;;;;;;5092341;28;20288;-65
2023/09/13 09:01:55;;;;;;;5.72;5.15;;;;;;;;;;5095140;28;20205;-64
2023/09/13 09:04:22;;;;;;;9.35;6.30;;;;;;;;;;5092496;28;20250;-64
2023/09/13 09:06:48;;;;;;;7.82;4.28;;;;;;;;;;5092637;28;20252;-64
2023/09/13 09:09:18;;;;;;;11.07;5.47;;;;;;;;;;5091370;28;20201;-64
2023/09/13 09:11:50;;;;;;;6.70;4.88;;;;;;;;;;5096197;28;20599;-63
2023/09/13 09:14:17;;;;;;;9.80;4.57;;;;;;;;;;5090938;28;21034;-63
2023/09/13 09:16:44;;;;;;;6.28;3.85;;;;;;;;;;5094416;28;20298;-64
2023/09/13 09:19:10;;;;;;;8.40;4.78;;;;;;;;;;5095070;28;20240;-63
2023/09/13 09:21:37;;;;;;;8.88;5.05;;;;;;;;;;5091437;28;20655;-63
2023/09/13 09:24:04;;;;;;;6.68;4.20;;;;;;;;;;5089851;28;20259;-63
2023/09/13 09:26:30;;;;;;;8.95;4.38;;;;;;;;;;5093844;28;22414;-64
2023/09/13 09:29:09;;;;;;;7.00;4.53;;;;;;;;;;5096108;28;20197;-63
2023/09/13 09:31:36;;;;;;;9.75;4.25;;;;;;;;;;5093073;28;20262;-62
2023/09/13 09:34:03;;;;;;;9.50;5.10;;;;;;;;;;5091184;28;20320;-62
2023/09/13 09:36:34;;;;;;;6.95;4.40;;;;;;;;;;5094444;28;20224;-64
2023/09/13 09:39:01;;;;;;;7.57;4.55;;;;;;;;;;5092533;28;20197;-63
2023/09/13 09:41:31;;;;;;;12.27;4.10;;;;;;;;;;5093158;28;20225;-63
2023/09/13 09:43:58;;;;;;;6.65;4.72;;;;;;;;;;5098334;28;20247;-63
2023/09/13 09:46:25;;;;;;;8.98;4.57;;;;;;;;;;5097441;28;20206;-63
2023/09/13 09:48:52;;;;;;;4.55;4.15;;;;;;;;;;5098115;28;20201;-63
2023/09/13 09:51:19;;;;;;;7.10;4.82;;;;;;;;;;5099944;28;21455;-62
2023/09/13 09:53:45;;;;;;;8.98;3.97;;;;;;;;;;5097271;28;20225;-64
2023/09/13 09:56:12;;;;;;;7.70;4.35;;;;;;;;;;5095169;28;20201;-63
2023/09/13 09:58:38;;;;;;;11.82;4.55;;;;;;;;;;5098857;28;20240;-63
2023/09/13 10:01:06;;;;;;;9.63;4.47;;;;;;;;;;5097267;28;20240;-63
2023/09/13 10:03:34;;;;;;;11.85;4.25;;;;;;;;;;5094714;28;20209;-63
2023/09/13 10:06:03;;;;;;;7.43;4.38;;;;;;;;;;5092794;28;20217;-64
2023/09/13 10:08:42;;;;;;;11.10;4.38;;;;;;;;;;5093831;28;20225;-63
2023/09/13 10:11:09;;;;;;;5.78;4.72;;;;;;;;;;5091686;28;20208;-63
2023/09/13 10:13:37;;;;;;;10.35;4.80;;;;;;;;;;5092321;28;20217;-62
2023/09/13 10:16:04;;;;;;;5.95;4.47;;;;;;;;;;5090784;28;20205;-64
2023/09/13 10:18:31;;;;;;;15.52;5.18;;;;;;;;;;5093000;28;20225;-64
2023/09/13 10:20:59;;;;;;;7.95;4.38;;;;;;;;;;5099165;28;20213;-64
2023/09/13 10:23:29;;;;;;;9.48;4.93;;;;;;;;;;5096995;28;20221;-63
2023/09/13 10:25:57;;;;;;;7.18;4.68;;;;;;;;;;5099963;28;20232;-64
2023/09/13 10:28:26;;;;;;;8.13;4.03;;;;;;;;;;5097167;28;20264;-64
2023/09/13 10:30:53;;;;;;;8.10;4.85;;;;;;;;;;5097246;28;20572;-64
2023/09/13 10:33:21;;;;;;;6.90;4.00;;;;;;;;;;5097436;28;20240;-63
2023/09/13 10:35:54;;;;;;;4.60;3.75;;;;;;;;;;5093393;28;20237;-63
2023/09/13 10:38:25;;;;;;;9.50;3.40;;;;;;;;;;5096982;28;20579;-62
2023/09/13 10:40:54;;;;;;;10.35;4.35;;;;;;;;;;5091339;28;20193;-62
2023/09/13 10:43:21;;;;;;;5.82;4.10;;;;;;;;;;5093642;28;20565;-62
2023/09/13 10:45:48;;;;;;;6.22;3.97;;;;;;;;;;5097227;28;20214;-65
2023/09/13 10:48:15;;;;;;;7.43;4.07;;;;;;;;;;5090085;28;20294;-67
2023/09/13 10:50:41;;;;;;;4.40;3.95;;;;;;;;;;5093761;28;20226;-63
2023/09/13 10:53:08;;;;;;;7.68;3.90;;;;;;;;;;5094459;28;20222;-62
2023/09/13 10:55:37;;;;;;;9.60;4.10;;;;;;;;;;5094090;28;20685;-64
2023/09/13 10:58:04;;;;;;;5.03;3.53;;;;;;;;;;5094709;28;20246;-67
2023/09/13 11:00:32;;;;;;;7.53;4.75;;;;;;;;;;5096817;28;20221;-62
2023/09/13 11:02:58;;;;;;;8.43;4.30;;;;;;;;;;5093546;28;20258;-63
2023/09/13 11:05:25;;;;;;;10.27;4.70;;;;;;;;;;5094311;28;20229;-63
2023/09/13 11:07:51;;;;;;;9.45;4.40;;;;;;;;;;5095474;28;20281;-64
2023/09/13 11:10:18;;;;;;;5.80;3.85;;;;;;;;;;5092250;28;20206;-62
2023/09/13 11:12:50;;;;;;;7.93;4.70;;;;;;;;;;5090101;28;20754;-63
2023/09/13 11:15:20;;;;;;;4.57;4.07;;;;;;;;;;5089279;28;20229;-63
2023/09/13 11:17:46;;;;;;;8.38;3.85;;;;;;;;;;5093864;28;20485;-62
2023/09/13 11:20:27;;;;;;;7.10;4.03;;;;;;;;;;5093851;28;20197;-62
2023/09/13 11:23:00;;;;;;;5.70;4.20;;;;;;;;;;5099370;28;20209;-63
2023/09/13 11:25:30;;;;;;;8.30;4.10;;;;;;;;;;5102887;28;20221;-62
2023/09/13 11:27:58;;;;;;;7.32;4.47;;;;;;;;;;5092930;28;20263;-62
2023/09/13 11:30:39;;;;;;;16.10;4.22;;;;;;;;;;5092792;28;20236;-62
2023/09/13 11:33:06;;;;;;;7.95;4.30;;;;;;;;;;5091862;28;20274;-64
2023/09/13 11:35:34;;;;;;;8.77;4.60;;;;;;;;;;5095155;28;20237;-63
2023/09/13 11:38:00;;;;;;;6.47;3.78;;;;;;;;;;5092168;28;20654;-67
2023/09/13 11:40:28;;;;;;;11.70;4.28;;;;;;;;;;5092229;28;20670;-65
2023/09/13 11:42:56;;;;;;;4.22;3.90;;;;;;;;;;5091145;28;20198;-64
2023/09/13 11:45:30;;;;;;;5.28;4.32;;;;;;;29.99;nan;95252.09;5092044;28;20204;-64
2023/09/13 11:47:56;;;;;;;5.88;4.28;;;;;;;;;;5090686;28;20221;-62
2023/09/13 11:50:23;;;;;;;5.90;3.90;;;;;;;;;;5092141;28;20663;-63
2023/09/13 11:53:08;;;;;;;6.85;4.38;;;;;;;;;;5093087;28;20213;-62
2023/09/13 11:55:38;;;;;;;9.15;4.25;;;;;;;;;;5092933;28;20201;-63
2023/09/13 11:58:05;;;;;;;6.97;4.15;;;;;;;;;;5095131;28;20205;-63
2023/09/13 12:00:39;;;;;;;4.28;3.75;;;;;;;;;;5090360;28;20220;-62
2023/09/13 12:03:06;;;;;;;7.15;3.65;;;;;;;;;;5099535;28;20246;-62
2023/09/13 12:05:33;;;;;;;6.40;3.88;;;;;;;;;;5097384;28;20205;-62
2023/09/13 12:08:00;;;;;;;3.97;3.58;;;;;;;;;;5095783;28;20273;-62
2023/09/13 12:10:30;;;;;;;6.50;4.32;;;;;;;;;;5093800;28;20225;-63
2023/09/13 12:12:57;;;;;;;5.22;4.13;;;;;;;;;;5094082;28;20731;-64
2023/09/13 12:15:25;;;;;;;7.05;3.78;;;;;;;;;;5091379;28;20205;-64
2023/09/13 12:17:53;;;;;;;12.30;4.95;;;;;;;;;;5090644;28;20320;-63
2023/09/13 12:20:19;;;;;;;5.05;3.90;;;;;;;;;;5090132;28;20202;-63
2023/09/13 12:22:46;;;;;;;6.72;4.25;;;;;;;;;;5095450;28;20232;-63
2023/09/13 12:25:13;;;;;;;9.02;3.88;;;;;;;;;;5097351;28;20193;-64
2023/09/13 12:27:39;;;;;;;5.18;4.03;;;;;;;;;;5096890;28;20229;-63
2023/09/13 12:30:07;;;;;;;13.27;4.47;;;;;;;;;;5096524;28;20317;-62
2023/09/13 12:32:33;;;;;;;11.60;5.07;;;;;;;;;;5095923;28;20297;-64
2023/09/13 12:35:02;;;;;;;10.10;4.40;;;;;;;;;;5090182;28;20257;-63
2023/09/13 12:37:28;;;;;;;3.97;3.58;;;;;;;;;;5100279;28;20201;-64
2023/09/13 12:39:55;;;;;;;4.70;3.40;;;;;;;;;;5094150;28;20205;-64
2023/09/13 12:42:21;;;;;;;6.20;3.20;;;;;;;;;;5091025;28;20197;-64
2023/09/13 12:44:48;;;;;;;9.13;3.80;;;;;;;;;;5090018;28;20229;-63
2023/09/13 12:47:16;;;;;;;11.13;3.50;;;;;;;;;;5095212;28;20282;-64
2023/09/13 12:49:43;;;;;;;7.45;3.63;;;;;;;;;;5094936;28;20278;-64
2023/09/13 12:52:11;;;;;;;10.35;3.45;;;;;;;;;;5092539;28;20724;-64
2023/09/13 12:54:39;;;;;;;4.53;3.00;;;;;;;;;;5092654;28;20197;-64
2023/09/13 12:57:06;;;;;;;5.53;3.42;;;;;;;;;;5097548;28;20223;-62
2023/09/13 12:59:42;;;;;;;7.00;3.25;;;;;;;;;;5094644;28;20198;-64
2023/09/13 13:02:12;;;;;;;7.28;4.05;;;;;;;;;;5090814;28;20254;-64
2023/09/13 13:04:40;;;;;;;8.65;3.78;;;;;;;;;;5095507;28;20197;-63
2023/09/13 13:07:07;;;;;;;10.43;3.97;;;;;;;;;;5098987;28;20266;-62
2023/09/13 13:09:34;;;;;;;10.63;3.58;;;;;;;;;;5096967;28;20233;-63
2023/09/13 13:12:01;;;;;;;7.57;3.97;;;;;;;;;;5093479;28;20254;-64
2023/09/13 13:14:29;;;;;;;6.00;3.65;;;;;;;;;;5097623;28;20302;-63
2023/09/13 13:16:56;;;;;;;10.98;4.00;;;;;;;;;;5093665;28;20273;-63
2023/09/13 13:19:32;;;;;;;8.60;4.35;;;;;;;;;;5101362;28;20650;-63
2023/09/13 13:21:59;;;;;;;6.18;3.88;;;;;;;;;;5098920;28;20204;-63
2023/09/13 13:24:25;;;;;;;5.25;4.18;;;;;;;;;;5101147;28;20202;-62
2023/09/13 13:26:54;;;;;;;8.23;3.88;;;;;;;;;;5099214;28;20560;-64
2023/09/13 13:29:21;;;;;;;5.50;3.38;;;;;;;;;;5095509;28;20754;-64
2023/09/13 13:31:47;;;;;;;8.10;3.38;;;;;;;;;;5096025;28;20242;-64
2023/09/13 13:34:14;;;;;;;7.90;3.42;;;;;;;;;;5100234;28;20721;-63
2023/09/13 13:36:40;;;;;;;4.57;3.33;;;;;;;;;;5104740;28;20273;-64
2023/09/13 13:39:14;;;;;;;5.47;3.60;;;;;;;;;;5095717;28;20746;-64
2023/09/13 13:41:40;;;;;;;5.38;3.30;;;;;;;;;;5095438;28;20205;-64
2023/09/13 13:44:08;;;;;;;6.50;3.78;;;;;;;;;;5098467;28;20205;-63
2023/09/13 13:46:35;;;;;;;9.75;4.07;;;;;;;;;;5099950;28;20193;-63
2023/09/13 13:49:02;;;;;;;14.60;5.18;;;;;;;;;;5098114;28;20252;-63
2023/09/13 13:51:29;;;;;;;7.38;3.50;;;;;;;;;;5099887;28;20692;-62
2023/09/13 13:53:55;;;;;;;7.75;3.72;;;;;;;;;;5096309;28;20650;-63
2023/09/13 13:56:22;;;;;;;11.40;3.50;;;;;;;;;;5106539;28;20654;-63
2023/09/13 13:58:53;;;;;;;10.45;3.80;;;;;;;;;;5104912;28;20207;-63
2023/09/13 14:01:21;;;;;;;5.32;3.28;;;;;;;;;;5105468;28;20237;-63
2023/09/13 14:03:47;;;;;;;5.43;3.40;;;;;;;;;;5104496;28;20201;-63
2023/09/13 14:06:16;;;;;;;5.53;3.72;;;;;;;;;;5095558;28;20566;-63
2023/09/13 14:08:42;;;;;;;8.13;3.78;;;;;;;;;;5091701;28;20217;-66
2023/09/13 14:11:09;;;;;;;4.20;3.60;;;;;;;;;;5095635;28;20660;-65
2023/09/13 14:13:35;;;;;;;5.15;3.03;;;;;;;;;;5094369;28;20240;-66
2023/09/13 14:16:02;;;;;;;6.88;3.50;;;;;;;;;;5097500;28;20201;-65
2023/09/13 14:18:30;;;;;;;3.63;3.30;;;;;;;;;;5094582;28;20193;-64
2023/09/13 14:20:56;;;;;;;9.25;3.95;;;;;;;;;;5100509;28;20197;-65
2023/09/13 14:23:25;;;;;;;6.10;3.58;;;;;;;;;;5100694;28;20205;-65
2023/09/13 14:25:51;;;;;;;12.18;3.42;;;;;;;;;;5095915;28;20209;-64
2023/09/13 14:28:18;;;;;;;6.50;3.70;;;;;;;;;;5096068;28;20921;-64
2023/09/13 14:30:44;;;;;;;6.57;3.38;;;;;;;;;;5099906;28;20235;-67
2023/09/13 14:33:12;;;;;;;5.20;3.20;;;;;;;;;;5095859;28;20241;-65
2023/09/13 14:35:40;;;;;;;8.20;3.50;;;;;;;;;;5078271;28;20229;-66
2023/09/13 14:38:06;;;;;;;7.85;3.50;;;;;;;;;;5081712;28;20208;-65